createdAt,value
2018-05-12T00:01:56.719Z,11.07
2018-05-12T00:04:24.823Z,10.50
2018-05-12T00:06:53.700Z,9.27
2018-05-12T00:09:22.321Z,10.73
2018-05-12T00:11:51.180Z,9.27
2018-05-12T00:14:19.380Z,11.40
2018-05-12T00:16:47.509Z,12.03
2018-05-12T00:19:15.717Z,9.30
2018-05-12T00:21:43.896Z,10.70
2018-05-12T00:24:12.063Z,13.70
2018-05-12T00:26:40.263Z,12.03
2018-05-12T00:29:08.415Z,10.93
2018-05-12T00:31:36.693Z,12.27
2018-05-12T00:34:04.976Z,13.87
2018-05-12T00:36:33.144Z,12.20
2018-05-12T00:39:01.287Z,9.63
2018-05-12T00:41:29.690Z,9.90
2018-05-12T00:43:58.304Z,11.33
2018-05-12T00:46:26.435Z,11.27
2018-05-12T00:48:54.580Z,12.33
2018-05-12T00:51:23.487Z,12.53
2018-05-12T00:53:52.406Z,13.53
2018-05-12T00:56:21.101Z,11.23
2018-05-12T00:58:49.442Z,9.37
2018-05-12T01:01:18.373Z,10.43
2018-05-12T01:03:46.783Z,12.40
2018-05-12T01:06:14.939Z,19.13
2018-05-12T01:08:43.285Z,17.73
2018-05-12T01:11:12.194Z,13.27
2018-05-12T01:13:41.070Z,11.30
2018-05-12T01:16:11.916Z,15.33
2018-05-12T01:18:40.080Z,9.97
2018-05-12T01:21:08.256Z,14.60
2018-05-12T01:23:36.466Z,11.83
2018-05-12T01:26:05.329Z,9.43
2018-05-12T01:28:34.243Z,11.83
2018-05-12T01:31:02.488Z,14.67
2018-05-12T01:33:30.609Z,12.67
2018-05-12T01:35:59.507Z,11.60
2018-05-12T01:38:27.636Z,12.03
2018-05-12T01:40:55.752Z,17.00
2018-05-12T01:43:23.853Z,11.23
2018-05-12T01:45:51.961Z,10.63
2018-05-12T01:48:20.126Z,9.67
2018-05-12T01:50:49.105Z,9.63
2018-05-12T01:53:17.263Z,11.60
2018-05-12T01:55:45.530Z,10.77
2018-05-12T01:58:13.692Z,10.07
2018-05-12T02:00:41.859Z,11.20
2018-05-12T02:03:10.166Z,11.33
2018-05-12T02:05:38.402Z,13.13
2018-05-12T02:08:07.356Z,9.37
2018-05-12T02:10:35.538Z,11.13
2018-05-12T02:13:03.697Z,10.27
2018-05-12T02:15:31.853Z,10.23
2018-05-12T02:17:59.998Z,17.13
2018-05-12T02:20:28.105Z,11.67
2018-05-12T02:22:56.347Z,7.67
2018-05-12T02:25:24.432Z,7.90
2018-05-12T02:27:53.323Z,11.90
2018-05-12T02:30:21.612Z,13.90
2018-05-12T02:32:49.591Z,8.63
2018-05-12T02:35:17.777Z,12.73
2018-05-12T02:37:45.917Z,9.47
2018-05-12T02:40:14.036Z,13.13
2018-05-12T02:42:42.176Z,13.10
2018-05-12T02:45:10.279Z,10.60
2018-05-12T02:47:38.536Z,14.17
2018-05-12T02:50:06.659Z,10.53
2018-05-12T02:52:34.766Z,12.30
2018-05-12T02:55:03.640Z,10.33
2018-05-12T02:57:31.759Z,10.57
2018-05-12T02:59:59.924Z,15.30
2018-05-12T03:02:28.843Z,10.03
2018-05-12T03:04:57.074Z,12.80
2018-05-12T03:07:25.959Z,8.90
2018-05-12T03:09:54.060Z,10.07
2018-05-12T03:12:22.226Z,9.30
2018-05-12T03:14:51.812Z,10.67
2018-05-12T03:17:19.952Z,8.93
2018-05-12T03:19:48.076Z,13.33
2018-05-12T03:22:16.270Z,11.07
2018-05-12T03:24:45.149Z,11.37
2018-05-12T03:27:13.307Z,10.43
2018-05-12T03:29:41.503Z,12.83
2018-05-12T03:32:09.679Z,14.77
2018-05-12T03:34:37.827Z,13.43
2018-05-12T03:37:05.959Z,10.63
2018-05-12T03:39:34.285Z,16.23
2018-05-12T03:42:02.386Z,12.10
2018-05-12T03:44:30.501Z,12.33
2018-05-12T03:46:59.444Z,12.63
2018-05-12T03:49:27.593Z,14.63
2018-05-12T03:51:55.776Z,14.17
2018-05-12T03:54:23.944Z,13.90
2018-05-12T03:56:52.136Z,15.60
2018-05-12T03:59:20.564Z,9.23
2018-05-12T04:01:48.683Z,18.10
2018-05-12T04:04:28.516Z,14.87
2018-05-12T04:07:08.267Z,16.47
2018-05-12T04:09:48.761Z,13.70
2018-05-12T04:12:28.792Z,12.17
2018-05-12T04:14:57.056Z,15.23
2018-05-12T04:17:25.188Z,16.13
2018-05-12T04:19:53.344Z,12.47
2018-05-12T04:22:21.465Z,13.77
2018-05-12T04:24:49.656Z,14.87
2018-05-12T04:27:17.775Z,13.97
2018-05-12T04:29:45.987Z,13.23
2018-05-12T04:32:14.099Z,16.20
2018-05-12T04:34:42.334Z,13.63
2018-05-12T04:37:11.249Z,15.83
2018-05-12T04:39:40.155Z,17.57
2018-05-12T04:42:09.056Z,12.73
2018-05-12T04:44:37.242Z,15.67
2018-05-12T04:47:05.388Z,17.60
2018-05-12T04:49:33.622Z,15.97
2018-05-12T04:52:01.784Z,19.17
2018-05-12T04:54:29.927Z,9.23
2018-05-12T04:56:58.044Z,14.17
2018-05-12T04:59:26.285Z,14.47
2018-05-12T05:01:55.206Z,16.07
2018-05-12T05:04:23.319Z,13.03
2018-05-12T05:06:55.265Z,13.50
2018-05-12T05:09:23.400Z,12.33
2018-05-12T05:11:51.584Z,15.93
2018-05-12T05:14:19.859Z,12.97
2018-05-12T05:16:48.096Z,12.70
2018-05-12T05:19:16.579Z,11.23
2018-05-12T05:21:44.901Z,12.63
2018-05-12T05:24:13.937Z,19.07
2018-05-12T05:26:42.361Z,10.43
2018-05-12T05:29:11.287Z,11.83
2018-05-12T05:31:39.603Z,11.80
2018-05-12T05:34:07.700Z,22.73
2018-05-12T05:36:35.880Z,11.40
2018-05-12T05:39:03.998Z,10.30
2018-05-12T05:41:32.190Z,11.73
2018-05-12T05:44:01.158Z,12.10
2018-05-12T05:46:29.620Z,17.33
2018-05-12T05:48:58.039Z,10.00
2018-05-12T05:51:26.235Z,14.30
2018-05-12T05:53:54.757Z,13.60
2018-05-12T05:56:23.198Z,12.63
2018-05-12T05:58:51.748Z,14.27
2018-05-12T06:01:19.875Z,17.77
2018-05-12T06:03:50.308Z,11.50
2018-05-12T06:06:18.489Z,11.30
2018-05-12T06:08:46.681Z,10.13
2018-05-12T06:11:14.837Z,9.73
2018-05-12T06:13:43.720Z,11.20
2018-05-12T06:16:12.617Z,14.50
2018-05-12T06:18:41.535Z,13.97
2018-05-12T06:21:10.496Z,15.00
2018-05-12T06:23:39.400Z,9.73
2018-05-12T06:26:07.568Z,13.97
2018-05-12T06:28:37.357Z,13.00
2018-05-12T06:31:05.463Z,9.83
2018-05-12T06:33:34.378Z,9.67
2018-05-12T06:36:02.493Z,12.03
2018-05-12T06:38:30.612Z,15.57
2018-05-12T06:40:58.759Z,10.47
2018-05-12T06:43:26.843Z,9.97
2018-05-12T06:45:54.972Z,12.60
2018-05-12T06:48:23.704Z,13.03
2018-05-12T06:50:51.820Z,9.90
2018-05-12T06:53:19.947Z,11.87
2018-05-12T06:55:48.103Z,12.23
2018-05-12T06:58:16.483Z,13.90
2018-05-12T07:00:45.157Z,8.90
2018-05-12T07:03:13.432Z,12.43
2018-05-12T07:05:42.911Z,8.30
2018-05-12T07:08:11.923Z,8.17
2018-05-12T07:10:40.482Z,9.13
2018-05-12T07:13:08.778Z,8.90
2018-05-12T07:15:37.222Z,12.10
2018-05-12T07:18:05.493Z,10.80
2018-05-12T07:20:33.668Z,12.70
2018-05-12T07:23:01.774Z,10.87
2018-05-12T07:25:29.915Z,18.63
2018-05-12T07:27:59.105Z,10.60
2018-05-12T07:30:27.257Z,7.53
2018-05-12T07:32:56.511Z,10.60
2018-05-12T07:35:24.600Z,8.47
2018-05-12T07:37:52.780Z,11.97
2018-05-12T07:40:21.010Z,8.03
2018-05-12T07:42:49.891Z,10.00
2018-05-12T07:45:18.027Z,7.60
2018-05-12T07:47:46.161Z,11.17
2018-05-12T07:50:15.885Z,7.97
2018-05-12T07:52:43.976Z,8.10
2018-05-12T07:55:12.100Z,9.37
2018-05-12T07:57:40.217Z,7.47
2018-05-12T08:00:09.152Z,9.20
2018-05-12T08:02:37.353Z,7.50
2018-05-12T08:05:05.489Z,9.47
2018-05-12T08:07:33.616Z,12.43
2018-05-12T08:10:01.768Z,7.93
2018-05-12T08:12:29.861Z,7.83
2018-05-12T08:14:57.988Z,9.07
2018-05-12T08:17:26.953Z,9.43
2018-05-12T08:19:55.815Z,7.90
2018-05-12T08:22:24.495Z,7.23
2018-05-12T08:24:52.775Z,8.10
2018-05-12T08:27:20.909Z,13.73
2018-05-12T08:29:49.206Z,7.97
2018-05-12T08:32:20.084Z,12.83
2018-05-12T08:34:48.246Z,9.77
2018-05-12T08:37:17.256Z,8.30
2018-05-12T08:39:45.516Z,12.73
2018-05-12T08:42:13.696Z,8.67
2018-05-12T08:44:43.543Z,8.97
2018-05-12T08:47:11.695Z,11.93
2018-05-12T08:49:39.885Z,7.87
2018-05-12T08:52:08.280Z,13.90
2018-05-12T08:54:37.383Z,11.33
2018-05-12T08:57:05.624Z,11.30
2018-05-12T08:59:33.736Z,8.47
2018-05-12T09:02:02.901Z,7.97
2018-05-12T09:04:31.010Z,10.33
2018-05-12T09:06:59.120Z,9.07
2018-05-12T09:09:28.002Z,7.57
2018-05-12T09:11:56.870Z,12.30
2018-05-12T09:14:25.177Z,9.90
2018-05-12T09:16:53.271Z,10.67
2018-05-12T09:19:21.436Z,10.03
2018-05-12T09:21:50.314Z,11.07
2018-05-12T09:24:18.447Z,9.10
2018-05-12T09:26:47.336Z,9.63
2018-05-12T09:29:15.464Z,8.10
2018-05-12T09:31:43.570Z,8.37
2018-05-12T09:34:11.740Z,9.47
2018-05-12T09:36:39.904Z,8.03
2018-05-12T09:39:08.808Z,8.87
2018-05-12T09:41:36.961Z,8.80
2018-05-12T09:44:05.138Z,8.00
2018-05-12T09:46:33.250Z,8.67
2018-05-12T09:49:01.545Z,5.07
2018-05-12T09:51:30.749Z,9.73
2018-05-12T09:53:58.883Z,6.67
2018-05-12T09:56:27.129Z,4.73
2018-05-12T09:58:55.311Z,4.70
2018-05-12T10:01:23.582Z,4.17
2018-05-12T10:03:51.699Z,4.23
2018-05-12T10:06:19.792Z,4.07
2018-05-12T10:08:48.697Z,14.93
2018-05-12T10:11:17.441Z,11.53
2018-05-12T10:13:45.608Z,14.10
2018-05-12T10:16:14.889Z,9.33
2018-05-12T10:18:43.069Z,5.63
2018-05-12T10:21:11.172Z,7.80
2018-05-12T10:23:39.335Z,10.63
2018-05-12T10:26:07.511Z,11.97
2018-05-12T10:28:36.448Z,7.00
2018-05-12T10:31:04.544Z,7.33
2018-05-12T10:33:33.437Z,6.17
2018-05-12T10:36:02.348Z,4.97
2018-05-12T10:38:30.476Z,4.83
2018-05-12T10:40:58.686Z,6.83
2018-05-12T10:43:27.556Z,6.40
2018-05-12T10:45:55.706Z,5.03
2018-05-12T10:48:23.788Z,7.33
2018-05-12T10:50:51.962Z,4.83
2018-05-12T10:53:20.063Z,3.40
2018-05-12T10:55:48.186Z,7.63
2018-05-12T10:58:16.334Z,3.50
2018-05-12T11:00:44.479Z,5.30
2018-05-12T11:03:12.654Z,4.70
2018-05-12T11:05:41.636Z,6.03
2018-05-12T11:08:10.503Z,5.50
2018-05-12T11:10:38.863Z,4.07
2018-05-12T11:13:07.088Z,4.50
2018-05-12T11:15:35.236Z,3.40
2018-05-12T11:18:03.364Z,4.23
2018-05-12T11:20:31.520Z,5.40
2018-05-12T11:22:59.608Z,2.80
2018-05-12T11:25:27.717Z,5.27
2018-05-12T11:27:55.818Z,6.00
2018-05-12T11:30:25.808Z,3.80
2018-05-12T11:32:54.470Z,5.40
2018-05-12T11:35:22.966Z,3.03
2018-05-12T11:37:51.315Z,4.63
2018-05-12T11:40:20.226Z,4.50
2018-05-12T11:42:48.324Z,2.73
2018-05-12T11:45:16.599Z,2.93
2018-05-12T11:47:44.769Z,3.07
2018-05-12T11:50:13.695Z,3.77
2018-05-12T11:52:41.823Z,3.77
2018-05-12T11:55:09.973Z,4.63
2018-05-12T11:57:38.948Z,5.93
2018-05-12T12:00:07.059Z,2.80
2018-05-12T12:02:35.380Z,6.40
2018-05-12T12:05:03.379Z,3.70
2018-05-12T12:07:31.555Z,4.03
2018-05-12T12:09:59.686Z,7.80
2018-05-12T12:12:27.892Z,8.67
2018-05-12T12:14:56.217Z,3.20
2018-05-12T12:17:25.109Z,3.07
2018-05-12T12:19:54.008Z,3.67
2018-05-12T12:22:22.896Z,2.87
2018-05-12T12:24:51.804Z,4.10
2018-05-12T12:27:19.901Z,3.83
2018-05-12T12:29:48.008Z,5.37
2018-05-12T12:32:16.111Z,3.50
2018-05-12T12:34:44.200Z,3.63
2018-05-12T12:37:12.386Z,2.83
2018-05-12T12:39:40.537Z,2.50
2018-05-12T12:42:08.678Z,4.40
2018-05-12T12:44:36.841Z,2.17
2018-05-12T12:47:04.968Z,3.47
2018-05-12T12:49:33.111Z,4.27
2018-05-12T12:52:01.267Z,4.07
2018-05-12T12:54:29.484Z,2.60
2018-05-12T12:56:57.623Z,2.50
2018-05-12T12:59:25.804Z,4.50
2018-05-12T13:01:53.965Z,5.33
2018-05-12T13:04:22.467Z,2.60
2018-05-12T13:06:50.584Z,4.03
2018-05-12T13:09:18.731Z,3.07
2018-05-12T13:11:46.868Z,5.00
2018-05-12T13:14:15.794Z,3.70
2018-05-12T13:16:43.901Z,5.67
2018-05-12T13:19:12.033Z,3.40
2018-05-12T13:21:40.137Z,4.70
2018-05-12T13:24:09.067Z,4.20
2018-05-12T13:26:37.196Z,3.87
2018-05-12T13:29:05.331Z,4.80
2018-05-12T13:31:33.465Z,4.70
2018-05-12T13:34:01.617Z,7.23
2018-05-12T13:36:29.795Z,2.83
2018-05-12T13:38:57.947Z,4.67
2018-05-12T13:41:26.152Z,5.07
2018-05-12T13:43:54.310Z,3.33
2018-05-12T13:46:22.556Z,5.43
2018-05-12T13:48:50.683Z,5.73
2018-05-12T13:51:18.820Z,6.37
2018-05-12T13:53:47.729Z,3.63
2018-05-12T13:56:15.823Z,5.10
2018-05-12T13:58:43.965Z,3.97
2018-05-12T14:01:12.104Z,5.57
2018-05-12T14:03:40.197Z,3.87
2018-05-12T14:06:08.313Z,4.20
2018-05-12T14:08:36.456Z,4.43
2018-05-12T14:11:04.627Z,4.33
2018-05-12T14:13:32.768Z,5.30
2018-05-12T14:16:01.642Z,4.17
2018-05-12T14:18:29.756Z,5.03
2018-05-12T14:20:57.972Z,5.10
2018-05-12T14:23:26.103Z,4.03
2018-05-12T14:25:55.097Z,3.03
2018-05-12T14:28:23.976Z,7.30
2018-05-12T14:30:52.852Z,3.30
2018-05-12T14:33:20.961Z,4.37
2018-05-12T14:35:49.088Z,9.10
2018-05-12T14:38:17.204Z,4.70
2018-05-12T14:40:45.462Z,3.57
2018-05-12T14:43:13.574Z,6.30
2018-05-12T14:45:41.715Z,4.20
2018-05-12T14:48:09.824Z,2.87
2018-05-12T14:50:38.015Z,3.83
2018-05-12T14:53:06.128Z,4.97
2018-05-12T14:55:34.227Z,5.10
2018-05-12T14:58:02.422Z,4.60
2018-05-12T15:00:30.540Z,3.77
2018-05-12T15:02:58.663Z,6.73
2018-05-12T15:05:26.807Z,4.70
2018-05-12T15:07:54.911Z,4.03
2018-05-12T15:10:23.031Z,4.10
2018-05-12T15:12:51.144Z,4.00
2018-05-12T15:15:19.278Z,3.20
2018-05-12T15:17:47.432Z,3.67
2018-05-12T15:20:16.354Z,4.63
2018-05-12T15:22:44.514Z,7.80
2018-05-12T15:25:13.397Z,15.33
2018-05-12T15:27:41.628Z,4.73
2018-05-12T15:30:10.056Z,3.50
2018-05-12T15:32:38.159Z,5.00
2018-05-12T15:35:07.304Z,5.37
2018-05-12T15:37:35.473Z,3.53
2018-05-12T15:40:03.692Z,4.23
2018-05-12T15:42:31.808Z,9.43
2018-05-12T15:44:59.998Z,6.53
2018-05-12T15:47:28.361Z,3.23
2018-05-12T15:49:56.642Z,3.10
2018-05-12T15:52:24.897Z,3.30
2018-05-12T15:54:53.805Z,4.13
2018-05-12T15:57:21.964Z,4.07
2018-05-12T15:59:50.081Z,4.67
2018-05-12T16:02:18.194Z,3.43
2018-05-12T16:04:46.296Z,7.50
2018-05-12T16:07:15.185Z,4.47
2018-05-12T16:09:43.330Z,5.93
2018-05-12T16:12:11.438Z,4.53
2018-05-12T16:14:39.565Z,7.33
2018-05-12T16:17:07.694Z,4.53
2018-05-12T16:19:35.834Z,4.40
2018-05-12T16:22:04.020Z,4.40
2018-05-12T16:24:32.144Z,5.00
2018-05-12T16:27:01.030Z,7.27
2018-05-12T16:29:29.152Z,4.50
2018-05-12T16:31:57.335Z,4.50
2018-05-12T16:34:25.480Z,6.23
2018-05-12T16:36:53.572Z,5.97
2018-05-12T16:39:21.728Z,5.03
2018-05-12T16:41:50.085Z,4.50
2018-05-12T16:44:18.997Z,4.23
2018-05-12T16:46:47.875Z,3.63
2018-05-12T16:49:15.987Z,4.07
2018-05-12T16:51:44.129Z,3.50
2018-05-12T16:54:12.231Z,4.77
2018-05-12T16:56:40.348Z,4.63
2018-05-12T16:59:08.451Z,3.70
2018-05-12T17:01:36.577Z,3.90
2018-05-12T17:04:04.667Z,9.43
2018-05-12T17:06:32.876Z,4.50
2018-05-12T17:09:01.435Z,7.03
2018-05-12T17:11:29.531Z,4.00
2018-05-12T17:13:57.648Z,3.80
2018-05-12T17:16:26.507Z,3.83
2018-05-12T17:18:54.630Z,4.80
2018-05-12T17:21:23.498Z,4.40
2018-05-12T17:23:51.603Z,4.30
2018-05-12T17:26:20.484Z,8.27
2018-05-12T17:28:48.599Z,4.77
2018-05-12T17:31:16.709Z,4.60
2018-05-12T17:33:44.856Z,4.30
2018-05-12T17:36:13.857Z,7.13
2018-05-12T17:38:42.887Z,5.13
2018-05-12T17:41:10.954Z,5.93
2018-05-12T17:43:39.210Z,5.03
2018-05-12T17:46:07.290Z,4.87
2018-05-12T17:48:35.409Z,3.67
2018-05-12T17:51:03.781Z,3.63
2018-05-12T17:53:31.882Z,4.90
2018-05-12T17:56:00.006Z,4.17
2018-05-12T17:58:28.128Z,4.83
2018-05-12T18:00:57.001Z,4.27
2018-05-12T18:03:25.278Z,8.17
2018-05-12T18:05:53.824Z,6.43
2018-05-12T18:08:21.930Z,3.83
2018-05-12T18:10:50.041Z,5.80
2018-05-12T18:13:18.185Z,5.77
2018-05-12T18:15:48.997Z,3.63
2018-05-12T18:18:17.911Z,5.03
2018-05-12T18:20:46.050Z,3.90
2018-05-12T18:23:15.080Z,4.13
2018-05-12T18:25:43.101Z,6.37
2018-05-12T18:28:11.317Z,5.30
2018-05-12T18:30:39.396Z,5.20
2018-05-12T18:33:07.564Z,5.37
2018-05-12T18:35:35.664Z,4.70
2018-05-12T18:38:03.824Z,5.67
2018-05-12T18:40:31.950Z,4.53
2018-05-12T18:43:00.063Z,7.03
2018-05-12T18:45:28.239Z,4.03
2018-05-12T18:47:56.889Z,6.17
2018-05-12T18:50:25.029Z,4.67
2018-05-12T18:52:53.145Z,5.43
2018-05-12T18:55:22.895Z,4.93
2018-05-12T18:57:51.009Z,4.53
2018-05-12T19:00:19.208Z,6.07
2018-05-12T19:02:47.314Z,4.40
2018-05-12T19:05:16.300Z,5.00
2018-05-12T19:07:44.579Z,9.47
2018-05-12T19:10:12.788Z,5.60
2018-05-12T19:12:41.624Z,6.83
2018-05-12T19:15:10.704Z,6.60
2018-05-12T19:17:38.804Z,7.77
2018-05-12T19:20:06.956Z,5.97
2018-05-12T19:22:35.098Z,6.00
2018-05-12T19:25:03.268Z,7.87
2018-05-12T19:27:32.240Z,6.43
2018-05-12T19:30:01.117Z,6.33
2018-05-12T19:32:29.386Z,6.73
2018-05-12T19:34:57.532Z,6.83
2018-05-12T19:37:25.998Z,9.53
2018-05-12T19:39:54.121Z,7.40
2018-05-12T19:42:22.241Z,7.27
2018-05-12T19:44:50.860Z,7.20
2018-05-12T19:47:19.101Z,8.07
2018-05-12T19:49:47.224Z,10.10
2018-05-12T19:52:15.330Z,6.20
2018-05-12T19:54:43.465Z,9.80
2018-05-12T19:57:12.397Z,7.30
2018-05-12T19:59:40.632Z,7.20
2018-05-12T20:02:08.807Z,9.53
2018-05-12T20:04:37.006Z,9.30
2018-05-12T20:07:05.884Z,7.93
2018-05-12T20:09:33.997Z,10.10
2018-05-12T20:12:02.163Z,7.23
2018-05-12T20:14:30.302Z,7.33
2018-05-12T20:16:59.225Z,10.77
2018-05-12T20:19:28.092Z,7.50
2018-05-12T20:21:56.215Z,6.90
2018-05-12T20:24:24.350Z,7.60
2018-05-12T20:26:52.528Z,12.83
2018-05-12T20:29:20.716Z,7.13
2018-05-12T20:31:49.592Z,11.30
2018-05-12T20:34:17.770Z,8.60
2018-05-12T20:36:45.901Z,8.50
2018-05-12T20:39:14.048Z,7.77
2018-05-12T20:41:42.171Z,9.90
2018-05-12T20:44:10.310Z,7.33
2018-05-12T20:46:39.248Z,9.17
2018-05-12T20:49:07.357Z,8.77
2018-05-12T20:51:35.456Z,10.13
2018-05-12T20:54:04.379Z,8.77
2018-05-12T20:56:32.520Z,12.50
2018-05-12T20:59:01.429Z,9.97
2018-05-12T21:01:29.555Z,8.33
2018-05-12T21:03:57.680Z,13.50
2018-05-12T21:06:26.555Z,9.53
2018-05-12T21:08:54.676Z,11.30
2018-05-12T21:11:22.797Z,8.33
2018-05-12T21:13:50.899Z,15.50
2018-05-12T21:16:19.872Z,10.23
2018-05-12T21:18:48.783Z,9.67
2018-05-12T21:21:17.657Z,8.73
2018-05-12T21:23:45.980Z,11.30
2018-05-12T21:26:14.046Z,12.70
2018-05-12T21:28:42.199Z,12.50
2018-05-12T21:31:10.328Z,14.00
2018-05-12T21:33:38.425Z,8.20
2018-05-12T21:36:06.555Z,11.97
2018-05-12T21:38:35.438Z,9.30
2018-05-12T21:41:04.357Z,9.70
2018-05-12T21:43:32.477Z,11.57
2018-05-12T21:46:00.642Z,13.03
2018-05-12T21:48:28.766Z,14.37
2018-05-12T21:50:57.656Z,13.40
2018-05-12T21:53:26.584Z,14.63
2018-05-12T21:55:54.780Z,13.97
2018-05-12T21:58:22.919Z,11.13
2018-05-12T22:00:51.072Z,12.60
2018-05-12T22:03:19.180Z,17.63
2018-05-12T22:05:47.449Z,10.80
2018-05-12T22:08:15.642Z,16.40
2018-05-12T22:10:44.536Z,15.17
2018-05-12T22:13:12.736Z,16.17
2018-05-12T22:15:40.864Z,14.33
2018-05-12T22:18:08.981Z,15.63
2018-05-12T22:20:37.967Z,15.77
2018-05-12T22:23:06.087Z,15.90
2018-05-12T22:25:34.189Z,18.40
2018-05-12T22:28:02.338Z,11.27
2018-05-12T22:30:30.561Z,17.93
2018-05-12T22:32:58.584Z,16.77
2018-05-12T22:35:26.766Z,13.90
2018-05-12T22:37:54.888Z,15.40
2018-05-12T22:40:23.077Z,13.00
2018-05-12T22:42:51.980Z,14.87
2018-05-12T22:45:20.134Z,14.20
2018-05-12T22:47:48.273Z,13.27
2018-05-12T22:50:16.416Z,15.93
2018-05-12T22:52:44.783Z,13.23
2018-05-12T22:55:13.232Z,16.57
2018-05-12T22:57:41.370Z,13.17
2018-05-12T23:00:09.537Z,18.27
2018-05-12T23:02:37.691Z,17.03
2018-05-12T23:05:05.814Z,16.13
2018-05-12T23:07:33.923Z,17.53
2018-05-12T23:10:02.064Z,17.70
2018-05-12T23:12:30.209Z,17.50
2018-05-12T23:14:59.097Z,16.30
2018-05-12T23:17:28.023Z,18.63
2018-05-12T23:19:56.139Z,20.03
2018-05-12T23:22:24.804Z,19.00
2018-05-12T23:24:53.079Z,17.27
2018-05-12T23:27:21.123Z,19.37
2018-05-12T23:29:50.089Z,18.87
2018-05-12T23:32:18.229Z,18.43
2018-05-12T23:34:46.390Z,14.87
2018-05-12T23:37:14.584Z,15.83
2018-05-12T23:39:43.546Z,22.70
2018-05-12T23:42:12.458Z,13.70
2018-05-12T23:44:40.607Z,19.53
2018-05-12T23:47:09.508Z,17.80
2018-05-12T23:49:38.428Z,15.97
2018-05-12T23:52:06.575Z,20.90
2018-05-12T23:54:34.676Z,17.97
2018-05-12T23:57:02.847Z,17.73
2018-05-12T23:59:31.779Z,17.37
